sensor_id;sensor_type;location;lat;lon;timestamp;P1;durP1;ratioP1;P2;durP2;ratioP2
6825;SDS011;3451;52.476;13.316;2023-08-06T00:00:51;7.57;;;6.50;;
6825;SDS011;3451;52.476;13.316;2023-08-06T00:03:18;8.20;;;6.73;;
6825;SDS011;3451;52.476;13.316;2023-08-06T00:05:44;8.63;;;6.50;;
6825;SDS011;3451;52.476;13.316;2023-08-06T00:08:10;8.13;;;6.57;;
6825;SDS011;3451;52.476;13.316;2023-08-06T00:10:37;14.07;;;6.70;;
6825;SDS011;3451;52.476;13.316;2023-08-06T00:13:05;9.77;;;6.83;;
6825;SDS011;3451;52.476;13.316;2023-08-06T00:15:31;9.40;;;6.60;;
6825;SDS011;3451;52.476;13.316;2023-08-06T00:17:58;8.77;;;6.70;;
6825;SDS011;3451;52.476;13.316;2023-08-06T00:20:24;8.83;;;7.03;;
6825;SDS011;3451;52.476;13.316;2023-08-06T00:22:51;8.53;;;7.47;;
6825;SDS011;3451;52.476;13.316;2023-08-06T00:25:18;8.33;;;6.37;;
6825;SDS011;3451;52.476;13.316;2023-08-06T00:27:44;8.17;;;7.27;;
6825;SDS011;3451;52.476;13.316;2023-08-06T00:30:10;7.33;;;6.57;;
6825;SDS011;3451;52.476;13.316;2023-08-06T00:32:37;9.70;;;7.40;;
6825;SDS011;3451;52.476;13.316;2023-08-06T00:35:03;7.60;;;6.80;;
6825;SDS011;3451;52.476;13.316;2023-08-06T00:37:30;8.43;;;7.17;;
6825;SDS011;3451;52.476;13.316;2023-08-06T00:39:57;9.20;;;7.30;;
6825;SDS011;3451;52.476;13.316;2023-08-06T00:42:23;8.93;;;7.73;;
6825;SDS011;3451;52.476;13.316;2023-08-06T00:44:49;9.13;;;7.60;;
6825;SDS011;3451;52.476;13.316;2023-08-06T00:47:15;9.13;;;7.27;;
6825;SDS011;3451;52.476;13.316;2023-08-06T00:49:42;8.53;;;7.30;;
6825;SDS011;3451;52.476;13.316;2023-08-06T00:52:08;9.33;;;7.47;;
6825;SDS011;3451;52.476;13.316;2023-08-06T00:54:35;11.10;;;7.27;;
6825;SDS011;3451;52.476;13.316;2023-08-06T00:57:02;9.53;;;6.77;;
6825;SDS011;3451;52.476;13.316;2023-08-06T00:59:29;11.63;;;7.67;;
6825;SDS011;3451;52.476;13.316;2023-08-06T01:01:57;8.63;;;7.30;;
6825;SDS011;3451;52.476;13.316;2023-08-06T01:04:23;9.07;;;7.10;;
6825;SDS011;3451;52.476;13.316;2023-08-06T01:06:52;9.20;;;7.23;;
6825;SDS011;3451;52.476;13.316;2023-08-06T01:14:37;7.23;;;6.20;;
6825;SDS011;3451;52.476;13.316;2023-08-06T01:17:08;9.27;;;7.23;;
6825;SDS011;3451;52.476;13.316;2023-08-06T01:19:35;7.80;;;6.67;;
6825;SDS011;3451;52.476;13.316;2023-08-06T01:22:01;7.07;;;6.33;;
6825;SDS011;3451;52.476;13.316;2023-08-06T01:24:28;8.17;;;6.83;;
6825;SDS011;3451;52.476;13.316;2023-08-06T01:27:00;7.17;;;6.50;;
6825;SDS011;3451;52.476;13.316;2023-08-06T01:29:41;7.20;;;6.50;;
6825;SDS011;3451;52.476;13.316;2023-08-06T01:32:11;9.07;;;7.10;;
6825;SDS011;3451;52.476;13.316;2023-08-06T01:34:39;9.30;;;7.03;;
6825;SDS011;3451;52.476;13.316;2023-08-06T01:37:06;7.77;;;6.93;;
6825;SDS011;3451;52.476;13.316;2023-08-06T01:39:33;8.07;;;7.13;;
6825;SDS011;3451;52.476;13.316;2023-08-06T01:41:59;9.27;;;7.03;;
6825;SDS011;3451;52.476;13.316;2023-08-06T01:44:26;8.97;;;6.93;;
6825;SDS011;3451;52.476;13.316;2023-08-06T01:46:53;8.67;;;6.70;;
6825;SDS011;3451;52.476;13.316;2023-08-06T01:49:19;10.57;;;6.90;;
6825;SDS011;3451;52.476;13.316;2023-08-06T01:51:45;7.67;;;6.87;;
6825;SDS011;3451;52.476;13.316;2023-08-06T01:54:12;8.90;;;7.17;;
6825;SDS011;3451;52.476;13.316;2023-08-06T01:56:38;9.10;;;7.70;;
6825;SDS011;3451;52.476;13.316;2023-08-06T01:59:04;10.07;;;7.77;;
6825;SDS011;3451;52.476;13.316;2023-08-06T02:01:31;8.37;;;7.23;;
6825;SDS011;3451;52.476;13.316;2023-08-06T02:03:57;8.93;;;7.77;;
6825;SDS011;3451;52.476;13.316;2023-08-06T02:06:23;8.40;;;7.10;;
6825;SDS011;3451;52.476;13.316;2023-08-06T02:08:50;10.43;;;8.00;;
6825;SDS011;3451;52.476;13.316;2023-08-06T02:11:16;9.50;;;7.40;;
6825;SDS011;3451;52.476;13.316;2023-08-06T02:13:42;9.27;;;7.37;;
6825;SDS011;3451;52.476;13.316;2023-08-06T02:16:09;9.37;;;7.80;;
6825;SDS011;3451;52.476;13.316;2023-08-06T02:18:35;8.23;;;7.03;;
6825;SDS011;3451;52.476;13.316;2023-08-06T02:21:01;9.17;;;7.73;;
6825;SDS011;3451;52.476;13.316;2023-08-06T02:23:28;8.93;;;7.67;;
6825;SDS011;3451;52.476;13.316;2023-08-06T02:26:01;10.23;;;7.60;;
6825;SDS011;3451;52.476;13.316;2023-08-06T02:28:28;9.37;;;8.07;;
6825;SDS011;3451;52.476;13.316;2023-08-06T02:30:54;8.10;;;7.30;;
6825;SDS011;3451;52.476;13.316;2023-08-06T02:33:20;10.53;;;7.97;;
6825;SDS011;3451;52.476;13.316;2023-08-06T02:35:47;10.33;;;7.50;;
6825;SDS011;3451;52.476;13.316;2023-08-06T02:38:13;10.90;;;8.10;;
6825;SDS011;3451;52.476;13.316;2023-08-06T02:40:43;9.07;;;8.03;;
6825;SDS011;3451;52.476;13.316;2023-08-06T02:43:10;8.13;;;7.23;;
6825;SDS011;3451;52.476;13.316;2023-08-06T02:45:36;10.17;;;8.10;;
6825;SDS011;3451;52.476;13.316;2023-08-06T02:48:03;10.33;;;7.30;;
6825;SDS011;3451;52.476;13.316;2023-08-06T02:50:30;8.77;;;7.87;;
6825;SDS011;3451;52.476;13.316;2023-08-06T02:52:56;7.73;;;6.90;;
6825;SDS011;3451;52.476;13.316;2023-08-06T02:55:22;8.77;;;7.60;;
6825;SDS011;3451;52.476;13.316;2023-08-06T02:57:49;9.43;;;7.30;;
6825;SDS011;3451;52.476;13.316;2023-08-06T03:00:15;8.10;;;7.17;;
6825;SDS011;3451;52.476;13.316;2023-08-06T03:02:41;7.57;;;6.87;;
6825;SDS011;3451;52.476;13.316;2023-08-06T03:05:07;8.73;;;7.63;;
6825;SDS011;3451;52.476;13.316;2023-08-06T03:07:34;7.83;;;6.97;;
6825;SDS011;3451;52.476;13.316;2023-08-06T03:10:02;9.00;;;7.10;;
6825;SDS011;3451;52.476;13.316;2023-08-06T03:12:28;7.70;;;6.77;;
6825;SDS011;3451;52.476;13.316;2023-08-06T03:14:54;8.87;;;7.60;;
6825;SDS011;3451;52.476;13.316;2023-08-06T03:17:21;8.17;;;7.23;;
6825;SDS011;3451;52.476;13.316;2023-08-06T03:19:47;8.10;;;7.30;;
6825;SDS011;3451;52.476;13.316;2023-08-06T03:22:13;8.77;;;7.43;;
6825;SDS011;3451;52.476;13.316;2023-08-06T03:24:40;8.43;;;6.73;;
6825;SDS011;3451;52.476;13.316;2023-08-06T03:27:06;9.53;;;7.60;;
6825;SDS011;3451;52.476;13.316;2023-08-06T03:29:32;9.23;;;6.80;;
6825;SDS011;3451;52.476;13.316;2023-08-06T03:31:59;8.03;;;7.23;;
6825;SDS011;3451;52.476;13.316;2023-08-06T03:34:25;7.80;;;7.03;;
6825;SDS011;3451;52.476;13.316;2023-08-06T03:36:51;7.63;;;6.83;;
6825;SDS011;3451;52.476;13.316;2023-08-06T03:39:17;8.33;;;7.03;;
6825;SDS011;3451;52.476;13.316;2023-08-06T03:41:44;8.03;;;7.23;;
6825;SDS011;3451;52.476;13.316;2023-08-06T03:44:10;7.97;;;6.70;;
6825;SDS011;3451;52.476;13.316;2023-08-06T03:46:36;9.67;;;7.10;;
6825;SDS011;3451;52.476;13.316;2023-08-06T03:49:03;8.47;;;7.57;;
6825;SDS011;3451;52.476;13.316;2023-08-06T03:51:29;8.17;;;7.20;;
6825;SDS011;3451;52.476;13.316;2023-08-06T03:53:55;8.60;;;7.30;;
6825;SDS011;3451;52.476;13.316;2023-08-06T03:56:22;7.37;;;6.57;;
6825;SDS011;3451;52.476;13.316;2023-08-06T03:58:48;9.00;;;6.63;;
6825;SDS011;3451;52.476;13.316;2023-08-06T04:01:14;9.40;;;6.77;;
6825;SDS011;3451;52.476;13.316;2023-08-06T04:03:41;8.17;;;6.67;;
6825;SDS011;3451;52.476;13.316;2023-08-06T04:06:07;7.57;;;6.53;;
6825;SDS011;3451;52.476;13.316;2023-08-06T04:08:33;9.93;;;6.90;;
6825;SDS011;3451;52.476;13.316;2023-08-06T04:11:00;7.23;;;6.30;;
6825;SDS011;3451;52.476;13.316;2023-08-06T04:13:26;7.30;;;6.57;;
6825;SDS011;3451;52.476;13.316;2023-08-06T04:15:53;7.10;;;5.77;;
6825;SDS011;3451;52.476;13.316;2023-08-06T04:18:20;7.03;;;5.70;;
6825;SDS011;3451;52.476;13.316;2023-08-06T04:20:46;6.90;;;5.17;;
6825;SDS011;3451;52.476;13.316;2023-08-06T04:23:15;5.30;;;4.80;;
6825;SDS011;3451;52.476;13.316;2023-08-06T04:25:41;7.30;;;5.57;;
6825;SDS011;3451;52.476;13.316;2023-08-06T04:28:08;8.00;;;5.80;;
6825;SDS011;3451;52.476;13.316;2023-08-06T04:30:34;8.27;;;5.60;;
6825;SDS011;3451;52.476;13.316;2023-08-06T04:33:00;5.83;;;5.23;;
6825;SDS011;3451;52.476;13.316;2023-08-06T04:35:27;5.50;;;4.97;;
6825;SDS011;3451;52.476;13.316;2023-08-06T04:37:53;6.17;;;5.13;;
6825;SDS011;3451;52.476;13.316;2023-08-06T04:40:19;6.73;;;5.10;;
6825;SDS011;3451;52.476;13.316;2023-08-06T04:42:45;6.60;;;5.67;;
6825;SDS011;3451;52.476;13.316;2023-08-06T04:45:12;6.27;;;5.37;;
6825;SDS011;3451;52.476;13.316;2023-08-06T04:47:38;6.13;;;5.30;;
6825;SDS011;3451;52.476;13.316;2023-08-06T04:50:05;6.40;;;5.10;;
6825;SDS011;3451;52.476;13.316;2023-08-06T04:52:31;5.90;;;4.97;;
6825;SDS011;3451;52.476;13.316;2023-08-06T04:54:58;7.07;;;5.37;;
6825;SDS011;3451;52.476;13.316;2023-08-06T04:57:24;5.87;;;4.80;;
6825;SDS011;3451;52.476;13.316;2023-08-06T04:59:51;6.80;;;4.90;;
6825;SDS011;3451;52.476;13.316;2023-08-06T05:02:17;6.70;;;4.70;;
6825;SDS011;3451;52.476;13.316;2023-08-06T05:04:43;5.97;;;5.10;;
6825;SDS011;3451;52.476;13.316;2023-08-06T05:07:10;6.23;;;5.50;;
6825;SDS011;3451;52.476;13.316;2023-08-06T05:09:36;7.07;;;5.43;;
6825;SDS011;3451;52.476;13.316;2023-08-06T05:12:03;7.00;;;5.27;;
6825;SDS011;3451;52.476;13.316;2023-08-06T05:14:30;7.13;;;5.47;;
6825;SDS011;3451;52.476;13.316;2023-08-06T05:16:56;6.43;;;5.10;;
6825;SDS011;3451;52.476;13.316;2023-08-06T05:19:23;6.23;;;5.17;;
6825;SDS011;3451;52.476;13.316;2023-08-06T05:21:49;6.37;;;5.30;;
6825;SDS011;3451;52.476;13.316;2023-08-06T05:24:15;7.13;;;5.63;;
6825;SDS011;3451;52.476;13.316;2023-08-06T05:26:42;6.27;;;5.10;;
6825;SDS011;3451;52.476;13.316;2023-08-06T05:29:09;6.20;;;5.23;;
6825;SDS011;3451;52.476;13.316;2023-08-06T05:31:36;5.57;;;5.07;;
6825;SDS011;3451;52.476;13.316;2023-08-06T05:34:02;6.20;;;5.13;;
6825;SDS011;3451;52.476;13.316;2023-08-06T05:36:29;6.20;;;5.37;;
6825;SDS011;3451;52.476;13.316;2023-08-06T05:38:55;6.63;;;5.40;;
6825;SDS011;3451;52.476;13.316;2023-08-06T05:41:22;7.83;;;6.10;;
6825;SDS011;3451;52.476;13.316;2023-08-06T05:43:48;6.63;;;5.40;;
6825;SDS011;3451;52.476;13.316;2023-08-06T05:46:15;5.87;;;5.30;;
6825;SDS011;3451;52.476;13.316;2023-08-06T05:48:41;7.70;;;5.87;;
6825;SDS011;3451;52.476;13.316;2023-08-06T05:51:07;6.97;;;5.50;;
6825;SDS011;3451;52.476;13.316;2023-08-06T05:53:34;6.90;;;5.57;;
6825;SDS011;3451;52.476;13.316;2023-08-06T05:56:00;9.20;;;5.77;;
6825;SDS011;3451;52.476;13.316;2023-08-06T05:58:26;8.77;;;5.23;;
6825;SDS011;3451;52.476;13.316;2023-08-06T06:00:55;5.80;;;5.20;;
6825;SDS011;3451;52.476;13.316;2023-08-06T06:03:21;5.77;;;5.17;;
6825;SDS011;3451;52.476;13.316;2023-08-06T06:05:47;5.53;;;5.03;;
6825;SDS011;3451;52.476;13.316;2023-08-06T06:08:14;5.77;;;4.40;;
6825;SDS011;3451;52.476;13.316;2023-08-06T06:10:40;6.83;;;5.20;;
6825;SDS011;3451;52.476;13.316;2023-08-06T06:13:07;6.47;;;5.07;;
6825;SDS011;3451;52.476;13.316;2023-08-06T06:15:35;7.33;;;5.93;;
6825;SDS011;3451;52.476;13.316;2023-08-06T06:18:02;7.07;;;5.40;;
6825;SDS011;3451;52.476;13.316;2023-08-06T06:20:28;7.23;;;5.77;;
6825;SDS011;3451;52.476;13.316;2023-08-06T06:22:55;8.43;;;5.97;;
6825;SDS011;3451;52.476;13.316;2023-08-06T06:25:21;7.13;;;5.97;;
6825;SDS011;3451;52.476;13.316;2023-08-06T06:27:47;7.50;;;6.10;;
6825;SDS011;3451;52.476;13.316;2023-08-06T06:30:13;6.27;;;5.57;;
6825;SDS011;3451;52.476;13.316;2023-08-06T06:32:40;5.90;;;5.20;;
6825;SDS011;3451;52.476;13.316;2023-08-06T06:35:07;6.90;;;6.20;;
6825;SDS011;3451;52.476;13.316;2023-08-06T06:37:33;6.63;;;5.67;;
6825;SDS011;3451;52.476;13.316;2023-08-06T06:39:59;6.00;;;4.90;;
6825;SDS011;3451;52.476;13.316;2023-08-06T06:42:26;5.90;;;5.30;;
6825;SDS011;3451;52.476;13.316;2023-08-06T06:44:52;7.03;;;5.00;;
6825;SDS011;3451;52.476;13.316;2023-08-06T06:47:18;5.53;;;5.00;;
6825;SDS011;3451;52.476;13.316;2023-08-06T06:49:45;7.33;;;5.80;;
6825;SDS011;3451;52.476;13.316;2023-08-06T06:52:11;6.83;;;5.33;;
6825;SDS011;3451;52.476;13.316;2023-08-06T06:54:37;6.97;;;5.60;;
6825;SDS011;3451;52.476;13.316;2023-08-06T06:57:04;5.10;;;4.50;;
6825;SDS011;3451;52.476;13.316;2023-08-06T06:59:30;6.27;;;4.63;;
6825;SDS011;3451;52.476;13.316;2023-08-06T07:01:57;6.70;;;4.97;;
6825;SDS011;3451;52.476;13.316;2023-08-06T07:04:23;7.23;;;5.20;;
6825;SDS011;3451;52.476;13.316;2023-08-06T07:06:49;6.57;;;5.47;;
6825;SDS011;3451;52.476;13.316;2023-08-06T07:09:16;6.00;;;5.40;;
6825;SDS011;3451;52.476;13.316;2023-08-06T07:11:42;6.17;;;5.03;;
6825;SDS011;3451;52.476;13.316;2023-08-06T07:14:10;5.77;;;5.10;;
6825;SDS011;3451;52.476;13.316;2023-08-06T07:16:36;7.70;;;5.83;;
6825;SDS011;3451;52.476;13.316;2023-08-06T07:19:02;5.87;;;5.00;;
6825;SDS011;3451;52.476;13.316;2023-08-06T07:21:29;5.20;;;4.53;;
6825;SDS011;3451;52.476;13.316;2023-08-06T07:23:55;5.23;;;4.63;;
6825;SDS011;3451;52.476;13.316;2023-08-06T07:26:21;5.03;;;4.53;;
6825;SDS011;3451;52.476;13.316;2023-08-06T07:28:48;4.53;;;4.13;;
6825;SDS011;3451;52.476;13.316;2023-08-06T07:31:14;5.60;;;5.03;;
6825;SDS011;3451;52.476;13.316;2023-08-06T07:33:41;4.97;;;4.47;;
6825;SDS011;3451;52.476;13.316;2023-08-06T07:36:08;4.97;;;4.47;;
6825;SDS011;3451;52.476;13.316;2023-08-06T07:38:34;6.30;;;4.90;;
6825;SDS011;3451;52.476;13.316;2023-08-06T07:41:03;4.70;;;4.20;;
6825;SDS011;3451;52.476;13.316;2023-08-06T07:43:30;5.13;;;4.63;;
6825;SDS011;3451;52.476;13.316;2023-08-06T07:45:59;5.30;;;4.80;;
6825;SDS011;3451;52.476;13.316;2023-08-06T07:48:27;6.10;;;4.63;;
6825;SDS011;3451;52.476;13.316;2023-08-06T07:50:53;5.70;;;4.93;;
6825;SDS011;3451;52.476;13.316;2023-08-06T07:53:21;5.13;;;4.57;;
6825;SDS011;3451;52.476;13.316;2023-08-06T07:55:49;5.53;;;4.93;;
6825;SDS011;3451;52.476;13.316;2023-08-06T07:58:15;6.00;;;4.90;;
6825;SDS011;3451;52.476;13.316;2023-08-06T08:00:42;5.87;;;4.67;;
6825;SDS011;3451;52.476;13.316;2023-08-06T08:03:11;5.97;;;5.37;;
6825;SDS011;3451;52.476;13.316;2023-08-06T08:05:38;6.53;;;5.53;;
6825;SDS011;3451;52.476;13.316;2023-08-06T08:08:05;5.87;;;5.20;;
6825;SDS011;3451;52.476;13.316;2023-08-06T08:10:32;6.93;;;5.40;;
6825;SDS011;3451;52.476;13.316;2023-08-06T08:12:58;5.80;;;5.17;;
6825;SDS011;3451;52.476;13.316;2023-08-06T08:15:24;6.77;;;5.90;;
6825;SDS011;3451;52.476;13.316;2023-08-06T08:17:52;9.63;;;5.90;;
6825;SDS011;3451;52.476;13.316;2023-08-06T08:20:18;7.80;;;5.73;;
6825;SDS011;3451;52.476;13.316;2023-08-06T08:22:45;6.93;;;6.10;;
6825;SDS011;3451;52.476;13.316;2023-08-06T08:25:11;7.47;;;5.93;;
6825;SDS011;3451;52.476;13.316;2023-08-06T08:27:37;7.57;;;5.63;;
6825;SDS011;3451;52.476;13.316;2023-08-06T08:30:04;7.50;;;6.27;;
6825;SDS011;3451;52.476;13.316;2023-08-06T08:32:31;6.80;;;6.00;;
6825;SDS011;3451;52.476;13.316;2023-08-06T08:34:57;6.00;;;5.40;;
6825;SDS011;3451;52.476;13.316;2023-08-06T08:37:23;6.60;;;6.00;;
6825;SDS011;3451;52.476;13.316;2023-08-06T08:39:50;8.17;;;5.67;;
6825;SDS011;3451;52.476;13.316;2023-08-06T08:42:18;10.07;;;6.50;;
6825;SDS011;3451;52.476;13.316;2023-08-06T08:44:45;6.20;;;5.50;;
6825;SDS011;3451;52.476;13.316;2023-08-06T08:47:11;7.37;;;6.40;;
6825;SDS011;3451;52.476;13.316;2023-08-06T08:49:38;8.37;;;6.50;;
6825;SDS011;3451;52.476;13.316;2023-08-06T08:52:05;7.13;;;6.33;;
6825;SDS011;3451;52.476;13.316;2023-08-06T08:54:32;7.10;;;6.40;;
6825;SDS011;3451;52.476;13.316;2023-08-06T08:56:59;7.37;;;6.53;;
6825;SDS011;3451;52.476;13.316;2023-08-06T08:59:26;7.67;;;6.60;;
6825;SDS011;3451;52.476;13.316;2023-08-06T09:01:52;6.90;;;6.20;;
6825;SDS011;3451;52.476;13.316;2023-08-06T09:04:20;7.73;;;6.67;;
6825;SDS011;3451;52.476;13.316;2023-08-06T09:06:49;7.20;;;6.47;;
6825;SDS011;3451;52.476;13.316;2023-08-06T09:09:26;7.63;;;6.77;;
6825;SDS011;3451;52.476;13.316;2023-08-06T09:11:53;6.43;;;5.73;;
6825;SDS011;3451;52.476;13.316;2023-08-06T09:14:21;6.90;;;6.20;;
6825;SDS011;3451;52.476;13.316;2023-08-06T09:16:48;7.53;;;6.50;;
6825;SDS011;3451;52.476;13.316;2023-08-06T09:19:14;7.00;;;6.30;;
6825;SDS011;3451;52.476;13.316;2023-08-06T09:21:45;9.93;;;6.80;;
6825;SDS011;3451;52.476;13.316;2023-08-06T09:24:14;7.90;;;7.10;;
6825;SDS011;3451;52.476;13.316;2023-08-06T09:26:42;6.80;;;6.10;;
6825;SDS011;3451;52.476;13.316;2023-08-06T09:29:09;7.63;;;6.83;;
6825;SDS011;3451;52.476;13.316;2023-08-06T09:31:44;7.87;;;6.90;;
6825;SDS011;3451;52.476;13.316;2023-08-06T09:34:18;6.93;;;6.20;;
6825;SDS011;3451;52.476;13.316;2023-08-06T09:36:46;7.30;;;6.60;;
6825;SDS011;3451;52.476;13.316;2023-08-06T09:39:13;7.23;;;6.53;;
6825;SDS011;3451;52.476;13.316;2023-08-06T09:41:39;6.93;;;6.00;;
6825;SDS011;3451;52.476;13.316;2023-08-06T09:44:11;7.73;;;6.93;;
6825;SDS011;3451;52.476;13.316;2023-08-06T09:46:41;7.97;;;6.83;;
6825;SDS011;3451;52.476;13.316;2023-08-06T09:49:07;8.23;;;6.77;;
6825;SDS011;3451;52.476;13.316;2023-08-06T09:51:36;7.30;;;6.60;;
6825;SDS011;3451;52.476;13.316;2023-08-06T09:54:06;9.03;;;7.00;;
6825;SDS011;3451;52.476;13.316;2023-08-06T09:56:52;8.47;;;7.00;;
6825;SDS011;3451;52.476;13.316;2023-08-06T09:59:18;8.23;;;6.80;;
6825;SDS011;3451;52.476;13.316;2023-08-06T10:01:45;7.60;;;6.90;;
6825;SDS011;3451;52.476;13.316;2023-08-06T10:04:12;7.27;;;6.57;;
6825;SDS011;3451;52.476;13.316;2023-08-06T10:06:49;7.10;;;6.40;;
6825;SDS011;3451;52.476;13.316;2023-08-06T10:09:15;7.70;;;6.93;;
6825;SDS011;3451;52.476;13.316;2023-08-06T10:11:42;7.40;;;6.60;;
6825;SDS011;3451;52.476;13.316;2023-08-06T10:16:42;7.33;;;6.73;;
6825;SDS011;3451;52.476;13.316;2023-08-06T10:19:11;7.87;;;6.83;;
6825;SDS011;3451;52.476;13.316;2023-08-06T10:21:38;7.67;;;6.93;;
6825;SDS011;3451;52.476;13.316;2023-08-06T10:24:07;7.77;;;6.97;;
6825;SDS011;3451;52.476;13.316;2023-08-06T10:26:36;7.50;;;6.47;;
6825;SDS011;3451;52.476;13.316;2023-08-06T10:29:34;7.23;;;6.53;;
6825;SDS011;3451;52.476;13.316;2023-08-06T10:32:00;9.20;;;7.30;;
6825;SDS011;3451;52.476;13.316;2023-08-06T10:34:48;8.10;;;7.23;;
6825;SDS011;3451;52.476;13.316;2023-08-06T10:37:15;7.90;;;7.10;;
6825;SDS011;3451;52.476;13.316;2023-08-06T10:39:48;7.90;;;7.07;;
6825;SDS011;3451;52.476;13.316;2023-08-06T10:42:48;7.23;;;6.53;;
6825;SDS011;3451;52.476;13.316;2023-08-06T10:45:19;7.07;;;6.30;;
6825;SDS011;3451;52.476;13.316;2023-08-06T10:47:46;7.90;;;6.73;;
6825;SDS011;3451;52.476;13.316;2023-08-06T10:50:13;7.37;;;6.67;;
6825;SDS011;3451;52.476;13.316;2023-08-06T10:52:45;7.83;;;7.03;;
6825;SDS011;3451;52.476;13.316;2023-08-06T10:55:13;8.47;;;6.63;;
6825;SDS011;3451;52.476;13.316;2023-08-06T10:57:40;8.93;;;7.40;;
6825;SDS011;3451;52.476;13.316;2023-08-06T11:00:07;8.17;;;7.37;;
6825;SDS011;3451;52.476;13.316;2023-08-06T11:02:42;10.27;;;7.37;;
6825;SDS011;3451;52.476;13.316;2023-08-06T11:05:08;8.73;;;7.70;;
6825;SDS011;3451;52.476;13.316;2023-08-06T11:07:35;7.80;;;6.83;;
6825;SDS011;3451;52.476;13.316;2023-08-06T11:10:06;7.43;;;6.63;;
6825;SDS011;3451;52.476;13.316;2023-08-06T11:12:33;9.03;;;7.70;;
6825;SDS011;3451;52.476;13.316;2023-08-06T11:14:59;8.90;;;7.87;;
6825;SDS011;3451;52.476;13.316;2023-08-06T11:17:29;8.10;;;7.30;;
6825;SDS011;3451;52.476;13.316;2023-08-06T11:19:56;10.73;;;8.37;;
6825;SDS011;3451;52.476;13.316;2023-08-06T11:22:22;9.53;;;8.00;;
6825;SDS011;3451;52.476;13.316;2023-08-06T11:24:48;9.40;;;8.50;;
6825;SDS011;3451;52.476;13.316;2023-08-06T11:27:16;11.20;;;8.53;;
6825;SDS011;3451;52.476;13.316;2023-08-06T11:29:45;10.13;;;8.70;;
6825;SDS011;3451;52.476;13.316;2023-08-06T11:32:12;10.33;;;8.10;;
6825;SDS011;3451;52.476;13.316;2023-08-06T11:34:42;9.73;;;7.93;;
6825;SDS011;3451;52.476;13.316;2023-08-06T11:37:09;9.03;;;8.07;;
6825;SDS011;3451;52.476;13.316;2023-08-06T11:39:36;12.10;;;9.07;;
6825;SDS011;3451;52.476;13.316;2023-08-06T11:42:03;12.23;;;9.23;;
6825;SDS011;3451;52.476;13.316;2023-08-06T11:44:31;11.63;;;9.23;;
6825;SDS011;3451;52.476;13.316;2023-08-06T11:47:01;12.30;;;9.73;;
6825;SDS011;3451;52.476;13.316;2023-08-06T11:49:48;14.03;;;9.53;;
6825;SDS011;3451;52.476;13.316;2023-08-06T11:52:15;10.87;;;9.77;;
6825;SDS011;3451;52.476;13.316;2023-08-06T11:54:42;12.97;;;9.90;;
6825;SDS011;3451;52.476;13.316;2023-08-06T11:57:09;12.03;;;9.43;;
6825;SDS011;3451;52.476;13.316;2023-08-06T11:59:37;11.53;;;9.17;;
6825;SDS011;3451;52.476;13.316;2023-08-06T12:02:03;15.47;;;9.47;;
6825;SDS011;3451;52.476;13.316;2023-08-06T12:04:32;11.03;;;8.67;;
6825;SDS011;3451;52.476;13.316;2023-08-06T12:07:17;10.13;;;9.00;;
6825;SDS011;3451;52.476;13.316;2023-08-06T12:09:43;9.80;;;8.47;;
6825;SDS011;3451;52.476;13.316;2023-08-06T12:12:09;9.90;;;7.90;;
6825;SDS011;3451;52.476;13.316;2023-08-06T12:14:36;16.23;;;8.63;;
6825;SDS011;3451;52.476;13.316;2023-08-06T12:17:02;9.10;;;7.63;;
6825;SDS011;3451;52.476;13.316;2023-08-06T12:19:29;5.87;;;5.00;;
6825;SDS011;3451;52.476;13.316;2023-08-06T12:21:56;6.63;;;5.23;;
6825;SDS011;3451;52.476;13.316;2023-08-06T12:24:22;7.97;;;5.87;;
6825;SDS011;3451;52.476;13.316;2023-08-06T12:26:49;9.33;;;6.93;;
6825;SDS011;3451;52.476;13.316;2023-08-06T12:29:16;9.93;;;6.90;;
6825;SDS011;3451;52.476;13.316;2023-08-06T12:31:42;8.70;;;6.80;;
6825;SDS011;3451;52.476;13.316;2023-08-06T12:34:08;6.97;;;5.87;;
6825;SDS011;3451;52.476;13.316;2023-08-06T12:36:35;7.97;;;6.40;;
6825;SDS011;3451;52.476;13.316;2023-08-06T12:39:01;7.73;;;6.37;;
6825;SDS011;3451;52.476;13.316;2023-08-06T12:41:27;8.23;;;6.70;;
6825;SDS011;3451;52.476;13.316;2023-08-06T12:43:53;8.87;;;6.30;;
6825;SDS011;3451;52.476;13.316;2023-08-06T12:46:20;7.20;;;6.40;;
6825;SDS011;3451;52.476;13.316;2023-08-06T12:48:46;7.40;;;6.60;;
6825;SDS011;3451;52.476;13.316;2023-08-06T12:51:14;7.70;;;6.57;;
6825;SDS011;3451;52.476;13.316;2023-08-06T12:53:40;8.07;;;6.50;;
6825;SDS011;3451;52.476;13.316;2023-08-06T12:56:07;8.57;;;6.20;;
6825;SDS011;3451;52.476;13.316;2023-08-06T12:58:33;7.33;;;6.07;;
6825;SDS011;3451;52.476;13.316;2023-08-06T13:00:59;8.10;;;6.07;;
6825;SDS011;3451;52.476;13.316;2023-08-06T13:03:26;6.17;;;5.00;;
6825;SDS011;3451;52.476;13.316;2023-08-06T13:05:52;6.13;;;5.53;;
6825;SDS011;3451;52.476;13.316;2023-08-06T13:08:19;8.20;;;5.70;;
6825;SDS011;3451;52.476;13.316;2023-08-06T13:10:45;6.43;;;4.93;;
6825;SDS011;3451;52.476;13.316;2023-08-06T13:13:11;7.63;;;4.70;;
6825;SDS011;3451;52.476;13.316;2023-08-06T13:15:38;12.17;;;4.47;;
6825;SDS011;3451;52.476;13.316;2023-08-06T13:18:04;5.57;;;4.23;;
6825;SDS011;3451;52.476;13.316;2023-08-06T13:20:30;5.83;;;4.33;;
6825;SDS011;3451;52.476;13.316;2023-08-06T13:22:58;5.97;;;4.20;;
6825;SDS011;3451;52.476;13.316;2023-08-06T13:25:24;5.00;;;4.40;;
6825;SDS011;3451;52.476;13.316;2023-08-06T13:27:50;6.23;;;4.60;;
6825;SDS011;3451;52.476;13.316;2023-08-06T13:30:17;7.03;;;4.77;;
6825;SDS011;3451;52.476;13.316;2023-08-06T13:32:44;5.73;;;4.63;;
6825;SDS011;3451;52.476;13.316;2023-08-06T13:35:11;6.13;;;5.03;;
6825;SDS011;3451;52.476;13.316;2023-08-06T13:37:37;8.37;;;7.17;;
6825;SDS011;3451;52.476;13.316;2023-08-06T13:40:04;6.23;;;5.27;;
6825;SDS011;3451;52.476;13.316;2023-08-06T13:42:30;5.57;;;4.67;;
6825;SDS011;3451;52.476;13.316;2023-08-06T13:44:58;7.27;;;4.77;;
6825;SDS011;3451;52.476;13.316;2023-08-06T13:47:29;5.37;;;4.63;;
6825;SDS011;3451;52.476;13.316;2023-08-06T13:49:55;7.03;;;5.30;;
6825;SDS011;3451;52.476;13.316;2023-08-06T13:52:21;6.27;;;5.47;;
6825;SDS011;3451;52.476;13.316;2023-08-06T13:54:48;6.63;;;5.70;;
6825;SDS011;3451;52.476;13.316;2023-08-06T13:57:14;6.63;;;5.87;;
6825;SDS011;3451;52.476;13.316;2023-08-06T13:59:40;8.47;;;6.27;;
6825;SDS011;3451;52.476;13.316;2023-08-06T14:02:07;6.70;;;5.77;;
6825;SDS011;3451;52.476;13.316;2023-08-06T14:04:34;8.77;;;6.70;;
6825;SDS011;3451;52.476;13.316;2023-08-06T14:07:00;9.90;;;7.07;;
6825;SDS011;3451;52.476;13.316;2023-08-06T14:09:26;9.30;;;7.20;;
6825;SDS011;3451;52.476;13.316;2023-08-06T14:11:53;9.27;;;7.07;;
6825;SDS011;3451;52.476;13.316;2023-08-06T14:14:20;10.40;;;7.40;;
6825;SDS011;3451;52.476;13.316;2023-08-06T14:16:52;10.60;;;7.40;;
6825;SDS011;3451;52.476;13.316;2023-08-06T14:19:19;9.37;;;6.90;;
6825;SDS011;3451;52.476;13.316;2023-08-06T14:21:45;11.07;;;7.83;;
6825;SDS011;3451;52.476;13.316;2023-08-06T14:24:13;10.13;;;7.80;;
6825;SDS011;3451;52.476;13.316;2023-08-06T14:26:39;11.33;;;7.80;;
6825;SDS011;3451;52.476;13.316;2023-08-06T14:29:05;9.83;;;6.97;;
6825;SDS011;3451;52.476;13.316;2023-08-06T14:31:32;9.97;;;7.03;;
6825;SDS011;3451;52.476;13.316;2023-08-06T14:33:58;8.43;;;6.57;;
6825;SDS011;3451;52.476;13.316;2023-08-06T14:36:25;8.97;;;6.37;;
6825;SDS011;3451;52.476;13.316;2023-08-06T14:38:51;9.27;;;6.30;;
6825;SDS011;3451;52.476;13.316;2023-08-06T14:41:25;8.63;;;6.90;;
6825;SDS011;3451;52.476;13.316;2023-08-06T14:43:52;7.90;;;6.43;;
6825;SDS011;3451;52.476;13.316;2023-08-06T14:46:19;9.27;;;6.43;;
6825;SDS011;3451;52.476;13.316;2023-08-06T14:48:45;8.17;;;6.10;;
6825;SDS011;3451;52.476;13.316;2023-08-06T14:51:12;8.90;;;6.43;;
6825;SDS011;3451;52.476;13.316;2023-08-06T14:53:38;6.90;;;5.77;;
6825;SDS011;3451;52.476;13.316;2023-08-06T14:56:05;7.63;;;5.37;;
6825;SDS011;3451;52.476;13.316;2023-08-06T14:58:32;9.07;;;5.23;;
6825;SDS011;3451;52.476;13.316;2023-08-06T15:00:58;6.23;;;4.23;;
6825;SDS011;3451;52.476;13.316;2023-08-06T15:03:24;6.93;;;4.90;;
6825;SDS011;3451;52.476;13.316;2023-08-06T15:05:51;7.33;;;4.93;;
6825;SDS011;3451;52.476;13.316;2023-08-06T15:08:17;6.17;;;4.40;;